Time;durP1;ratioP1;P1;durP2;ratioP2;P2;SDS_P1;SDS_P2;PMS_P1;PMS_P2;Temp;Humidity;BMP_temperature;BMP_pressure;BME280_temperature;BME280_humidity;BME280_pressure;Samples;Min_cycle;Max_cycle;Signal;HPM_P1;HPM_P2
2022/05/10 00:00:32;;;;;;;6.88;3.10;;;17.50;57.50;;;;;;5093339;28;20168;-34
2022/05/10 00:02:59;;;;;;;5.97;3.33;;;17.40;57.70;;;;;;5093380;28;20027;-30
2022/05/10 00:05:32;;;;;;;6.82;3.40;;;17.40;57.90;;;;;;5093121;28;20038;-30
2022/05/10 00:07:58;;;;;;;5.35;3.20;;;17.40;58.10;;;;;;5093209;28;20452;-30
2022/05/10 00:10:24;;;;;;;6.43;3.30;;;17.30;58.20;;;;;;5092846;28;20032;-29
2022/05/10 00:12:50;;;;;;;6.13;3.33;;;17.30;58.40;;;;;;5093409;28;20027;-29
2022/05/10 00:15:16;;;;;;;7.15;3.58;;;17.30;58.50;;;;;;5093386;28;20020;-35
2022/05/10 00:17:43;;;;;;;7.53;3.55;;;17.30;58.60;;;;;;5092807;28;20551;-31
2022/05/10 00:20:12;;;;;;;6.88;3.53;;;17.30;58.70;;;;;;5091667;28;20024;-30
2022/05/10 00:22:38;;;;;;;8.10;3.80;;;17.30;58.80;;;;;;5093007;28;20115;-29
2022/05/10 00:25:06;;;;;;;7.50;3.60;;;17.40;58.80;;;;;;5093121;28;20035;-31
2022/05/10 00:27:32;;;;;;;6.28;3.65;;;17.40;58.90;;;;;;5092718;28;20036;-32
2022/05/10 00:29:57;;;;;;;8.60;3.75;;;17.40;58.90;;;;;;5092651;28;20125;-30
2022/05/10 00:32:28;;;;;;;6.28;3.55;;;17.40;59.00;;;;;;5092834;28;20053;-32
2022/05/10 00:34:54;;;;;;;5.82;3.67;;;17.30;59.00;;;;;;5092792;28;20055;-33
2022/05/10 00:37:21;;;;;;;5.80;3.45;;;17.30;59.10;;;;;;5092949;28;20499;-30
2022/05/10 00:39:47;;;;;;;7.40;3.50;;;17.30;59.20;;;;;;5093189;28;20024;-30
2022/05/10 00:42:16;;;;;;;5.70;3.30;;;17.30;59.30;;;;;;5093140;28;20023;-31
2022/05/10 00:44:51;;;;;;;6.80;4.03;;;17.30;59.30;;;;;;5092856;28;20020;-34
2022/05/10 00:47:21;;;;;;;5.90;3.78;;;17.20;59.50;;;;;;5092910;28;20035;-31
2022/05/10 00:50:16;;;;;;;7.15;4.30;;;17.20;59.40;;;;;;5092723;28;20024;-31
2022/05/10 00:53:10;;;;;;;5.38;4.10;;;17.20;59.60;;;;;;5063676;28;20044;-29
2022/05/10 00:55:49;;;;;;;6.82;4.20;;;17.20;59.60;;;;;;5096279;28;20028;-30
2022/05/10 00:58:25;;;;;;;6.43;4.20;;;17.20;59.60;;;;;;5096851;28;20093;-29
2022/05/10 01:00:54;;;;;;;6.70;4.40;;;17.20;59.70;;;;;;5096875;28;20475;-31
2022/05/10 01:03:42;;;;;;;5.80;3.97;;;17.20;59.70;;;;;;5097053;28;20020;-29
2022/05/10 01:06:20;;;;;;;6.15;4.00;;;17.20;60.00;;;;;;5096648;28;20016;-29
2022/05/10 01:09:06;;;;;;;6.47;4.40;;;17.10;60.10;;;;;;5096566;28;20028;-30
2022/05/10 01:12:00;;;;;;;6.55;4.63;;;17.10;60.40;;;;;;5096863;28;20150;-30
2022/05/10 01:14:25;;;;;;;8.10;4.55;;;17.10;60.50;;;;;;5096217;28;20045;-29
2022/05/10 01:16:51;;;;;;;5.80;4.78;;;17.10;60.40;;;;;;5096324;28;20020;-30
2022/05/10 01:19:17;;;;;;;7.75;4.72;;;17.00;60.50;;;;;;5096007;28;20032;-33
2022/05/10 01:21:57;;;;;;;6.90;4.50;;;17.00;60.70;;;;;;5095787;28;20030;-31
2022/05/10 01:24:49;;;;;;;5.20;4.20;;;17.00;60.90;;;;;;5095778;28;20035;-36
2022/05/10 01:27:20;;;;;;;7.55;4.72;;;16.90;60.90;;;;;;5095835;28;20082;-31
2022/05/10 01:29:51;;;;;;;6.72;4.82;;;17.00;61.00;;;;;;5096084;28;20028;-34
2022/05/10 01:35:14;;;;;;;7.10;4.88;;;16.90;61.20;;;;;;5096243;28;20427;-29
2022/05/10 01:37:46;;;;;;;7.88;4.97;;;16.90;61.30;;;;;;5095893;28;20095;-30
2022/05/10 01:40:16;;;;;;;6.38;4.90;;;16.90;61.30;;;;;;5095669;28;20078;-31
2022/05/10 01:42:47;;;;;;;7.75;5.13;;;16.90;61.40;;;;;;5096027;28;20043;-33
2022/05/10 01:45:28;;;;;;;6.72;4.95;;;16.90;61.50;;;;;;5095655;28;20020;-32
2022/05/10 01:47:59;;;;;;;7.40;4.85;;;16.80;61.50;;;;;;5095302;28;20020;-30
2022/05/10 01:50:38;;;;;;;6.45;5.22;;;16.80;62.30;;;;;;5095262;28;20020;-34
2022/05/10 01:53:18;;;;;;;8.00;5.53;;;16.80;61.80;;;;;;5095520;28;20055;-31
2022/05/10 01:56:06;;;;;;;9.00;5.00;;;16.80;61.90;;;;;;5095353;28;20020;-35
2022/05/10 01:58:37;;;;;;;7.43;5.30;;;16.70;62.20;;;;;;5095287;28;20047;-30
2022/05/10 02:01:11;;;;;;;8.60;5.32;;;16.70;62.30;;;;;;5095491;28;20478;-30
2022/05/10 02:04:01;;;;;;;9.80;5.15;;;16.60;62.40;;;;;;5095295;28;20028;-29
2022/05/10 02:06:35;;;;;;;6.82;5.05;;;16.60;62.50;;;;;;5094932;28;20023;-30
2022/05/10 02:09:11;;;;;;;8.93;5.65;;;16.60;62.60;;;;;;5093982;28;20027;-30
2022/05/10 02:11:41;;;;;;;8.55;5.60;;;16.50;62.70;;;;;;5095193;28;20035;-32
2022/05/10 02:14:28;;;;;;;7.53;5.57;;;16.50;62.80;;;;;;5095310;28;20099;-29
2022/05/10 02:17:07;;;;;;;9.88;5.20;;;16.50;63.00;;;;;;5093945;28;20425;-29
2022/05/10 02:19:41;;;;;;;7.85;6.20;;;16.50;63.10;;;;;;5095206;28;20016;-30
2022/05/10 02:22:12;;;;;;;6.28;5.32;;;16.40;63.30;;;;;;5095091;28;20024;-29
2022/05/10 02:24:50;;;;;;;10.57;6.22;;;16.40;63.40;;;;;;5095353;28;20032;-31
2022/05/10 02:27:24;;;;;;;10.25;6.70;;;16.30;63.60;;;;;;5095142;28;20071;-29
2022/05/10 02:29:59;;;;;;;12.52;6.80;;;16.30;63.80;;;;;;5094640;28;20036;-30
2022/05/10 02:35:19;;;;;;;;;;;16.30;63.90;;;;;;5095127;28;20034;-35
2022/05/10 02:37:44;;;;;;;10.48;6.43;;;16.30;63.70;;;;;;5094520;28;20007;-35
2022/05/10 02:40:11;;;;;;;11.00;6.88;;;16.30;63.70;;;;;;5094517;28;20035;-31
2022/05/10 02:42:37;;;;;;;10.23;6.82;;;16.30;64.00;;;;;;5094368;28;20024;-30
2022/05/10 02:45:04;;;;;;;9.50;6.88;;;16.30;64.10;;;;;;5094238;28;20046;-28
2022/05/10 02:47:37;;;;;;;9.52;6.95;;;16.20;64.20;;;;;;5094292;28;20056;-31
2022/05/10 02:50:13;;;;;;;9.82;6.78;;;16.30;64.30;;;;;;5092708;28;20028;-34
2022/05/10 02:52:39;;;;;;;9.90;7.07;;;16.30;64.30;;;;;;5094042;28;20028;-30
2022/05/10 02:55:16;;;;;;;9.20;6.65;;;16.30;64.30;;;;;;5094654;28;20035;-29
2022/05/10 02:57:46;;;;;;;9.70;7.18;;;16.30;64.50;;;;;;5093822;28;20059;-28
2022/05/10 03:00:13;;;;;;;9.52;7.90;;;16.30;64.50;;;;;;5094086;28;20016;-29
2022/05/10 03:02:43;;;;;;;11.55;7.20;;;16.30;64.70;;;;;;5094134;28;20032;-29
2022/05/10 03:05:11;;;;;;;9.90;7.95;;;16.30;64.70;;;;;;5094019;28;20030;-31
2022/05/10 03:07:38;;;;;;;10.00;7.30;;;16.30;64.80;;;;;;5094097;28;20115;-29
2022/05/10 03:10:05;;;;;;;10.77;7.80;;;16.30;64.90;;;;;;5094278;28;20099;-33
2022/05/10 03:12:31;;;;;;;10.38;7.55;;;16.30;64.90;;;;;;5094063;28;20085;-31
2022/05/10 03:14:56;;;;;;;12.50;7.65;;;16.30;64.90;;;;;;5094269;28;20020;-32
2022/05/10 03:17:22;;;;;;;8.88;7.00;;;16.30;64.90;;;;;;5093027;28;20020;-29
2022/05/10 03:19:47;;;;;;;11.25;7.35;;;16.30;65.00;;;;;;5093510;28;20048;-29
2022/05/10 03:22:13;;;;;;;11.32;7.68;;;16.30;65.10;;;;;;5093766;28;20375;-29
2022/05/10 03:24:38;;;;;;;10.52;8.00;;;16.30;65.10;;;;;;5093838;28;20413;-29
2022/05/10 03:27:06;;;;;;;11.40;7.47;;;16.30;65.20;;;;;;5093475;28;20068;-30
2022/05/10 03:29:33;;;;;;;8.85;7.70;;;16.30;65.30;;;;;;5093791;28;20103;-33
2022/05/10 03:31:59;;;;;;;11.40;7.55;;;16.30;65.30;;;;;;5092163;28;20360;-30
2022/05/10 03:37:09;;;;;;;10.27;7.43;;;16.30;65.60;;;;;;5093785;28;20039;-30
2022/05/10 03:39:35;;;;;;;11.95;7.30;;;16.20;65.60;;;;;;5093294;28;20464;-30
2022/05/10 03:42:02;;;;;;;10.48;8.10;;;16.20;66.30;;;;;;5091894;28;20031;-29
2022/05/10 03:44:31;;;;;;;11.25;7.60;;;16.20;65.90;;;;;;5093334;28;20024;-33
2022/05/10 03:46:57;;;;;;;8.52;7.18;;;16.20;66.10;;;;;;5093204;28;20051;-29
2022/05/10 03:49:23;;;;;;;9.60;7.63;;;16.10;66.10;;;;;;5093370;28;20074;-30
2022/05/10 03:51:48;;;;;;;9.27;7.50;;;16.20;66.20;;;;;;5092883;28;20021;-28
2022/05/10 03:54:14;;;;;;;14.95;7.95;;;16.10;66.20;;;;;;5093362;28;20525;-34
2022/05/10 03:56:40;;;;;;;11.68;7.32;;;16.10;66.30;;;;;;5092832;28;20036;-30
2022/05/10 03:59:05;;;;;;;11.05;7.90;;;16.20;66.50;;;;;;5093078;28;20032;-29
2022/05/10 04:01:31;;;;;;;9.00;7.43;;;16.20;66.50;;;;;;5093077;28;20028;-32
2022/05/10 04:03:57;;;;;;;12.05;8.23;;;16.20;66.50;;;;;;5092663;28;20028;-29
2022/05/10 04:06:22;;;;;;;11.95;8.15;;;16.20;66.60;;;;;;5092702;28;20081;-29
2022/05/10 04:08:48;;;;;;;11.57;7.93;;;16.20;66.60;;;;;;5093094;28;20439;-30
2022/05/10 04:11:14;;;;;;;13.05;8.50;;;16.30;66.60;;;;;;5092605;28;20020;-30
2022/05/10 04:13:42;;;;;;;12.07;8.80;;;16.20;66.60;;;;;;5092543;28;20012;-29
2022/05/10 04:16:08;;;;;;;12.25;7.95;;;16.20;66.70;;;;;;5092690;28;20031;-32
2022/05/10 04:18:34;;;;;;;13.13;8.50;;;16.30;66.70;;;;;;5092669;28;20028;-30
2022/05/10 04:21:00;;;;;;;11.07;8.52;;;16.30;66.70;;;;;;5092690;28;20078;-30
2022/05/10 04:23:26;;;;;;;12.10;8.55;;;16.30;66.80;;;;;;5092928;28;20048;-34
2022/05/10 04:25:51;;;;;;;10.77;8.80;;;16.30;66.80;;;;;;5092445;28;20028;-31
2022/05/10 04:28:18;;;;;;;12.80;8.38;;;16.30;66.80;;;;;;5092528;28;20030;-29
2022/05/10 04:30:44;;;;;;;20.80;8.60;;;16.30;66.80;;;;;;5092932;28;20024;-29
2022/05/10 04:33:10;;;;;;;16.15;9.23;;;16.40;66.90;;;;;;5092676;28;20024;-33
2022/05/10 04:35:36;;;;;;;16.67;8.82;;;16.40;66.80;;;;;;5092491;28;20020;-31
2022/05/10 04:38:03;;;;;;;11.15;8.60;;;16.50;66.80;;;;;;5092289;28;20016;-35
2022/05/10 04:43:13;;;;;;;12.13;8.70;;;16.50;66.70;;;;;;5092690;28;20045;-30
2022/05/10 04:45:40;;;;;;;13.00;9.38;;;16.60;66.60;;;;;;5090933;28;20021;-28
2022/05/10 04:48:06;;;;;;;12.18;8.80;;;16.60;66.70;;;;;;5092576;28;20028;-30
2022/05/10 04:50:32;;;;;;;10.90;9.00;;;16.60;66.60;;;;;;5092609;28;20049;-29
2022/05/10 04:52:57;;;;;;;15.40;9.98;;;16.70;66.70;;;;;;5092288;28;20028;-29
2022/05/10 04:55:23;;;;;;;11.75;9.38;;;16.70;66.60;;;;;;5092383;28;20107;-29
2022/05/10 04:57:49;;;;;;;14.55;9.63;;;16.70;66.60;;;;;;5092074;28;20040;-29
2022/05/10 05:00:15;;;;;;;15.20;9.82;;;16.70;66.70;;;;;;5090971;28;20106;-28
2022/05/10 05:02:42;;;;;;;14.27;9.23;;;16.80;66.70;;;;;;5092365;28;20027;-29
2022/05/10 05:05:09;;;;;;;12.25;10.00;;;16.80;66.50;;;;;;5092637;28;20490;-28
2022/05/10 05:07:35;;;;;;;12.85;9.73;;;16.80;66.60;;;;;;5092277;28;20028;-28
2022/05/10 05:10:02;;;;;;;16.50;9.40;;;16.80;66.60;;;;;;5092154;28;20051;-28
2022/05/10 05:12:28;;;;;;;12.38;9.82;;;16.90;66.60;;;;;;5092492;28;20101;-29
2022/05/10 05:14:54;;;;;;;13.73;10.02;;;16.90;66.60;;;;;;5092100;28;20483;-29
2022/05/10 05:17:19;;;;;;;13.60;10.35;;;16.90;66.50;;;;;;5092234;28;20372;-28
2022/05/10 05:19:45;;;;;;;14.13;9.70;;;17.00;66.60;;;;;;5092595;28;20107;-29
2022/05/10 05:22:11;;;;;;;13.32;10.23;;;17.10;66.60;;;;;;5092273;28;20024;-28
2022/05/10 05:24:37;;;;;;;11.30;9.45;;;17.10;66.50;;;;;;5092483;28;20032;-31
2022/05/10 05:27:03;;;;;;;14.07;9.50;;;17.20;66.50;;;;;;5092007;28;20407;-30
2022/05/10 05:29:28;;;;;;;11.93;9.23;;;17.30;66.30;;;;;;5091981;28;20059;-29
2022/05/10 05:31:54;;;;;;;11.07;9.20;;;17.40;66.30;;;;;;5091773;28;20035;-29
2022/05/10 05:34:20;;;;;;;12.90;9.85;;;17.50;66.20;;;;;;5092118;28;20043;-31
2022/05/10 05:37:32;;;;;;;10.85;9.00;;;17.50;66.10;;;;;;5092100;28;20472;-30
2022/05/10 05:39:32;;;;;;;12.25;9.57;;;17.60;66.00;;;;;;5091910;28;20059;-32
2022/05/10 05:41:57;;;;;;;14.20;9.57;;;17.60;65.80;;;;;;5095469;28;20417;-37
2022/05/10 05:44:23;;;;;;;13.57;9.82;;;17.60;65.80;;;;;;5095722;28;20392;-32
2022/05/10 05:46:49;;;;;;;16.33;9.32;;;17.70;65.80;;;;;;5095633;28;20114;-32
2022/05/10 05:49:15;;;;;;;14.70;9.45;;;17.70;65.70;;;;;;5095708;28;20028;-34
2022/05/10 05:51:41;;;;;;;12.82;9.38;;;17.70;65.60;;;;;;5095472;28;20137;-31
2022/05/10 05:54:08;;;;;;;15.43;10.43;;;17.80;65.50;;;;;;5095408;28;20028;-30
2022/05/10 05:56:35;;;;;;;13.43;10.07;;;17.80;65.40;;;;;;5095852;28;20031;-32
2022/05/10 05:59:00;;;;;;;12.68;9.98;;;17.90;65.40;;;;;;5095080;28;20040;-29
2022/05/10 06:01:26;;;;;;;14.15;9.57;;;17.90;65.30;;;;;;5095618;28;20024;-30
2022/05/10 06:03:52;;;;;;;11.60;9.35;;;17.90;65.20;;;;;;5095157;28;20059;-31
2022/05/10 06:06:17;;;;;;;12.98;9.60;;;18.00;65.10;;;;;;5095426;28;20059;-32
2022/05/10 06:08:43;;;;;;;12.55;9.10;;;18.00;65.00;;;;;;5095092;28;20071;-29
2022/05/10 06:11:09;;;;;;;13.70;9.80;;;18.00;64.90;;;;;;5095335;28;20440;-34
2022/05/10 06:13:35;;;;;;;15.38;9.93;;;18.00;64.80;;;;;;5095235;28;20024;-29
2022/05/10 06:16:05;;;;;;;11.77;9.88;;;18.10;64.80;;;;;;5093695;28;20020;-30
2022/05/10 06:18:31;;;;;;;16.20;10.35;;;18.10;64.80;;;;;;5094498;28;20126;-30
2022/05/10 06:20:56;;;;;;;18.88;10.82;;;18.20;64.80;;;;;;5094719;28;20111;-33
2022/05/10 06:23:22;;;;;;;16.77;10.30;;;18.20;64.70;;;;;;5094900;28;20142;-29
2022/05/10 06:25:47;;;;;;;16.88;10.63;;;18.20;64.70;;;;;;5094925;28;20031;-32
2022/05/10 06:28:13;;;;;;;12.38;10.10;;;18.30;64.70;;;;;;5094774;28;20415;-33
2022/05/10 06:30:39;;;;;;;14.32;10.45;;;18.30;64.50;;;;;;5094977;28;20073;-35
2022/05/10 06:33:05;;;;;;;13.88;10.48;;;18.40;64.60;;;;;;5094918;28;20479;-31
2022/05/10 06:35:30;;;;;;;17.23;10.57;;;18.40;64.40;;;;;;5094873;28;20012;-32
2022/05/10 06:40:41;;;;;;;13.80;10.68;;;18.50;64.40;;;;;;5094819;28;20086;-32
2022/05/10 06:43:06;;;;;;;14.23;10.38;;;18.60;64.30;;;;;;5094649;28;20048;-29
2022/05/10 06:45:32;;;;;;;14.23;10.63;;;18.60;64.10;;;;;;5094706;28;20388;-41
2022/05/10 06:47:58;;;;;;;15.60;10.27;;;18.80;64.00;;;;;;5094538;28;20024;-31
2022/05/10 06:50:25;;;;;;;13.98;9.60;;;18.90;63.90;;;;;;5094373;28;20031;-32
2022/05/10 06:52:54;;;;;;;12.80;9.90;;;19.00;63.70;;;;;;5094382;28;20095;-32
2022/05/10 06:55:20;;;;;;;16.70;11.00;;;19.00;63.60;;;;;;5094619;28;20024;-29
2022/05/10 06:57:45;;;;;;;14.82;10.85;;;19.10;63.50;;;;;;5094220;28;20463;-29
2022/05/10 07:00:13;;;;;;;14.20;10.75;;;19.20;63.30;;;;;;5094231;28;20016;-35
2022/05/10 07:02:40;;;;;;;15.02;10.77;;;19.30;63.20;;;;;;5094345;28;20310;-29
2022/05/10 07:05:07;;;;;;;14.05;9.88;;;19.40;63.00;;;;;;5094760;28;20475;-32
2022/05/10 07:07:33;;;;;;;14.80;10.13;;;19.50;62.80;;;;;;5094997;28;20511;-29
2022/05/10 07:09:59;;;;;;;13.13;9.68;;;19.60;62.60;;;;;;5094243;28;20024;-33
2022/05/10 07:12:25;;;;;;;16.55;10.07;;;19.70;62.40;;;;;;5094357;28;20107;-29
2022/05/10 07:14:50;;;;;;;14.18;9.60;;;19.80;62.20;;;;;;5094152;28;20039;-31
2022/05/10 07:17:16;;;;;;;12.25;9.57;;;19.90;62.00;;;;;;5094020;28;20095;-29
2022/05/10 07:19:42;;;;;;;12.30;9.88;;;19.90;61.80;;;;;;5093864;28;20056;-37
2022/05/10 07:22:07;;;;;;;13.18;9.38;;;20.00;61.70;;;;;;5093897;28;20476;-31
2022/05/10 07:24:33;;;;;;;14.82;9.20;;;20.10;61.70;;;;;;5093939;28;20066;-32
2022/05/10 07:26:59;;;;;;;11.80;8.82;;;20.10;61.50;;;;;;5093765;28;20024;-36
2022/05/10 07:29:24;;;;;;;12.32;9.23;;;20.20;61.30;;;;;;5093727;28;20504;-32
2022/05/10 07:31:50;;;;;;;14.15;8.30;;;20.30;61.10;;;;;;5093513;28;20375;-30
2022/05/10 07:34:16;;;;;;;10.02;7.97;;;20.40;61.00;;;;;;5093647;28;20020;-34
2022/05/10 07:36:41;;;;;;;12.95;8.23;;;20.50;60.90;;;;;;5093581;28;20052;-30
2022/05/10 07:39:11;;;;;;;10.02;7.63;;;20.60;60.60;;;;;;5093586;28;20120;-32
2022/05/10 07:41:38;;;;;;;8.57;6.57;;;20.70;60.40;;;;;;5093474;28;20031;-32
2022/05/10 07:44:07;;;;;;;10.23;6.97;;;20.80;60.30;;;;;;5093560;28;20360;-29
2022/05/10 07:46:32;;;;;;;9.23;6.80;;;21.00;60.10;;;;;;5093468;28;20388;-33
2022/05/10 07:48:58;;;;;;;8.38;7.50;;;21.10;59.90;;;;;;5093363;28;20050;-36
2022/05/10 07:51:23;;;;;;;11.63;7.43;;;21.30;59.60;;;;;;5093310;28;20054;-34
2022/05/10 07:53:49;;;;;;;8.32;7.35;;;21.40;59.30;;;;;;5093555;28;20042;-35
2022/05/10 07:56:16;;;;;;;13.15;7.40;;;21.50;59.00;;;;;;5093502;28;20062;-34
2022/05/10 07:58:41;;;;;;;8.52;6.75;;;21.60;58.70;;;;;;5093299;28;20407;-30
2022/05/10 08:01:07;;;;;;;7.32;6.60;;;21.70;58.50;;;;;;5093247;28;20035;-30
2022/05/10 08:03:33;;;;;;;9.40;6.63;;;21.70;58.40;;;;;;5092788;28;20032;-32
2022/05/10 08:05:59;;;;;;;8.02;6.57;;;21.80;58.20;;;;;;5093205;28;20024;-30
2022/05/10 08:08:27;;;;;;;6.32;5.72;;;21.90;58.00;;;;;;5093429;28;20106;-30
2022/05/10 08:10:54;;;;;;;7.20;6.22;;;22.10;57.90;;;;;;5092944;28;20016;-32
2022/05/10 08:13:23;;;;;;;7.53;6.30;;;22.20;57.60;;;;;;5093385;28;20460;-33
2022/05/10 08:15:50;;;;;;;7.78;6.47;;;22.30;57.30;;;;;;5093150;28;20478;-29
2022/05/10 08:18:16;;;;;;;9.30;6.10;;;22.30;57.00;;;;;;5092772;28;20085;-30
2022/05/10 08:20:45;;;;;;;8.23;6.10;;;22.40;56.90;;;;;;5092741;28;20035;-29
2022/05/10 08:23:21;;;;;;;6.30;5.70;;;22.40;56.60;;;;;;5092843;28;20031;-30
2022/05/10 08:25:48;;;;;;;9.77;5.93;;;22.50;56.60;;;;;;5092747;28;20060;-30
2022/05/10 08:28:14;;;;;;;7.00;5.93;;;22.50;56.50;;;;;;5093106;28;20438;-29
2022/05/10 08:30:42;;;;;;;11.07;5.95;;;22.60;56.40;;;;;;5092752;28;20016;-31
2022/05/10 08:33:10;;;;;;;8.63;5.82;;;22.70;56.40;;;;;;5092902;28;20032;-30
2022/05/10 08:35:36;;;;;;;7.60;5.50;;;22.80;56.30;;;;;;5092941;28;20020;-31
2022/05/10 08:38:02;;;;;;;7.28;5.03;;;22.80;56.10;;;;;;5092787;28;20093;-30
2022/05/10 08:40:32;;;;;;;7.53;5.13;;;22.90;56.00;;;;;;5092426;28;20028;-33
2022/05/10 08:43:02;;;;;;;7.35;5.00;;;22.90;55.80;;;;;;5092631;28;20073;-33
2022/05/10 08:45:29;;;;;;;6.65;5.75;;;22.90;55.60;;;;;;5092448;28;20024;-30
2022/05/10 08:47:54;;;;;;;9.70;5.10;;;22.90;55.60;;;;;;5092708;28;20498;-33
2022/05/10 08:50:21;;;;;;;5.43;4.53;;;22.90;55.60;;;;;;5092363;28;20078;-30
2022/05/10 08:52:51;;;;;;;11.63;5.13;;;22.90;55.60;;;;;;5092492;28;20077;-36
2022/05/10 08:55:23;;;;;;;9.73;4.53;;;22.90;55.60;;;;;;5092744;28;20020;-36
2022/05/10 08:57:59;;;;;;;5.50;4.93;;;22.80;55.60;;;;;;5092408;28;20040;-39
2022/05/10 09:00:37;;;;;;;7.93;4.35;;;22.80;55.60;;;;;;5092773;28;20412;-35
2022/05/10 09:03:30;;;;;;;5.30;4.57;;;22.90;55.60;;;;;;5091278;28;20028;-35
2022/05/10 09:06:20;;;;;;;6.88;3.70;;;22.90;55.50;;;;;;5091133;28;20020;-38
2022/05/10 09:09:12;;;;;;;5.45;3.90;;;22.90;55.40;;;;;;5091338;28;20056;-32
2022/05/10 09:11:53;;;;;;;4.03;3.55;;;23.00;55.30;;;;;;5092257;28;20043;-35
2022/05/10 09:14:27;;;;;;;4.22;3.80;;;23.00;55.30;;;;;;5092356;28;20028;-30
2022/05/10 09:16:54;;;;;;;5.57;3.83;;;23.00;55.00;;;;;;5096151;28;20044;-30
2022/05/10 09:19:27;;;;;;;4.68;3.80;;;23.10;55.00;;;;;;5096699;28;20103;-33
2022/05/10 09:21:54;;;;;;;4.72;3.40;;;23.10;54.70;;;;;;5096293;28;20024;-31
2022/05/10 09:24:29;;;;;;;4.47;3.53;;;23.10;54.70;;;;;;5096517;28;20043;-30
2022/05/10 09:27:04;;;;;;;4.43;3.33;;;23.20;54.60;;;;;;5095016;28;20052;-31
2022/05/10 09:29:40;;;;;;;4.55;3.58;;;23.30;54.40;;;;;;5096403;28;20473;-37
2022/05/10 09:35:14;;;;;;;8.30;3.45;;;23.30;54.00;;;;;;5096043;28;20039;-32
2022/05/10 09:37:45;;;;;;;3.40;3.10;;;23.30;54.00;;;;;;5095714;28;20058;-30
2022/05/10 09:40:17;;;;;;;3.60;3.15;;;23.40;53.90;;;;;;5095668;28;20024;-34
2022/05/10 09:42:46;;;;;;;4.25;3.03;;;23.40;53.60;;;;;;5095538;28;20073;-33
2022/05/10 09:45:17;;;;;;;6.45;3.22;;;23.50;53.30;;;;;;5095624;28;20036;-32
2022/05/10 09:47:58;;;;;;;4.80;2.70;;;23.70;53.00;;;;;;5095593;28;20028;-37
2022/05/10 09:50:29;;;;;;;4.75;3.25;;;23.80;52.80;;;;;;5095398;28;20416;-35
2022/05/10 09:53:22;;;;;;;6.15;2.97;;;24.00;52.40;;;;;;5095361;28;20016;-32
2022/05/10 09:56:23;;;;;;;4.32;3.08;;;24.10;52.00;;;;;;5095564;28;20024;-30
2022/05/10 09:59:01;;;;;;;7.05;3.03;;;24.20;51.60;;;;;;5069012;28;20040;-29
2022/05/10 10:01:55;;;;;;;5.13;2.63;;;24.30;51.30;;;;;;5095735;28;20140;-30
2022/05/10 10:04:26;;;;;;;;;;;24.50;51.10;;;;;;5094575;28;20047;-32
2022/05/10 10:07:09;;;;;;;6.93;2.83;;;24.60;51.00;;;;;;5095283;28;19991;-30
2022/05/10 10:09:40;;;;;;;3.33;2.45;;;24.70;50.50;;;;;;5095244;28;20031;-30
2022/05/10 10:12:14;;;;;;;4.88;2.83;;;24.70;50.00;;;;;;5095140;28;20024;-31
2022/05/10 10:14:44;;;;;;;6.40;2.72;;;24.70;49.80;;;;;;5095109;28;20512;-32
2022/05/10 10:17:24;;;;;;;4.32;3.00;;;24.80;50.00;;;;;;5095128;28;20050;-30
2022/05/10 10:19:53;;;;;;;4.03;2.42;;;24.80;49.40;;;;;;5094951;28;20043;-31
2022/05/10 10:22:27;;;;;;;5.18;2.80;;;25.00;49.50;;;;;;5094825;28;20127;-31
2022/05/10 10:24:56;;;;;;;2.92;2.30;;;25.10;49.50;;;;;;5095017;28;20028;-29
2022/05/10 10:27:29;;;;;;;3.42;2.45;;;25.20;49.10;;;;;;5094740;28;20347;-33
2022/05/10 10:30:00;;;;;;;3.95;2.83;;;25.20;49.00;;;;;;5094725;28;20050;-36
2022/05/10 10:32:33;;;;;;;4.35;2.80;;;25.30;48.60;;;;;;5094678;28;20476;-33
2022/05/10 10:35:32;;;;;;;4.57;2.70;;;25.40;48.20;;;;;;5093095;28;20016;-38
2022/05/10 10:38:07;;;;;;;4.85;3.03;;;25.50;48.10;;;;;;5094569;28;20376;-32
2022/05/10 10:40:34;;;;;;;4.78;3.30;;;25.40;47.80;;;;;;5094414;28;20077;-32
2022/05/10 10:43:07;;;;;;;4.75;3.28;;;25.40;47.60;;;;;;5094182;28;20384;-36
2022/05/10 10:45:47;;;;;;;3.13;2.80;;;25.40;47.50;;;;;;5094530;28;20120;-29
2022/05/10 10:48:18;;;;;;;4.25;2.72;;;25.30;47.80;;;;;;5094527;28;20472;-30
2022/05/10 10:50:44;;;;;;;5.55;3.10;;;25.30;47.70;;;;;;5094004;28;20066;-35
2022/05/10 10:53:11;;;;;;;5.75;3.35;;;25.30;47.80;;;;;;5094264;28;20475;-30
2022/05/10 10:55:43;;;;;;;5.25;3.50;;;25.30;47.50;;;;;;5094216;28;20524;-30
2022/05/10 10:58:36;;;;;;;5.05;3.40;;;25.30;47.50;;;;;;5094048;28;20044;-31
2022/05/10 11:01:28;;;;;;;4.78;3.30;;;25.30;47.20;;;;;;5093974;28;20020;-31
2022/05/10 11:04:20;;;;;;;5.85;3.33;;;25.20;47.40;;;;;;5094417;28;20035;-31
2022/05/10 11:06:53;;;;;;;4.35;3.53;;;25.20;47.40;;;;;;5094042;28;20058;-30
2022/05/10 11:09:52;;;;;;;5.25;3.28;;;25.20;47.30;;;;;;5094147;28;20467;-34
2022/05/10 11:12:37;;;;;;;5.88;3.63;;;25.30;47.40;;;;;;5093987;28;20024;-30
2022/05/10 11:15:11;;;;;;;6.15;3.47;;;25.40;47.50;;;;;;5093988;28;20035;-32
2022/05/10 11:18:09;;;;;;;6.97;3.15;;;25.50;47.50;;;;;;5093951;28;20475;-30
2022/05/10 11:20:40;;;;;;;6.45;3.92;;;25.60;47.40;;;;;;5049015;28;20441;-34
2022/05/10 11:23:07;;;;;;;7.32;3.88;;;25.70;47.00;;;;;;5094065;28;20016;-29
2022/05/10 11:25:51;;;;;;;7.38;3.03;;;25.80;46.80;;;;;;5093745;28;20035;-29
2022/05/10 11:28:51;;;;;;;7.20;3.10;;;25.80;46.80;;;;;;5093565;28;20059;-41
2022/05/10 11:31:16;;;;;;;4.78;2.65;;;25.90;46.80;;;;;;5093478;28;20031;-32
2022/05/10 11:34:17;;;;;;;4.20;2.60;;;25.90;46.60;;;;;;5093560;28;20020;-37
2022/05/10 11:36:48;;;;;;;6.70;2.70;;;26.00;46.40;;;;;;5021009;28;20124;-35
2022/05/10 11:39:41;;;;;;;3.35;2.75;;;26.00;46.30;;;;;;5092952;28;20020;-33
2022/05/10 11:42:32;;;;;;;4.50;2.88;;;26.10;46.30;;;;;;5093840;28;20031;-29
2022/05/10 11:45:05;;;;;;;7.15;3.40;;;26.10;46.20;;;;;;5093525;28;20028;-36
2022/05/10 11:47:48;;;;;;;7.20;3.20;;;26.10;45.90;;;;;;5093522;28;20035;-31
2022/05/10 11:50:13;;;;;;;;;;;26.10;45.80;;;;;;5093977;28;20477;-30
2022/05/10 11:53:07;;;;;;;6.50;3.10;;;26.00;45.60;;;;;;5093331;28;19998;-31
2022/05/10 11:55:46;;;;;;;6.82;3.30;;;25.90;45.90;;;;;;5056980;28;20131;-30
2022/05/10 11:58:14;;;;;;;5.35;3.35;;;25.90;45.90;;;;;;5093079;28;20044;-31
2022/05/10 12:01:00;;;;;;;5.75;3.40;;;25.80;46.00;;;;;;5093166;28;20020;-29
2022/05/10 12:03:52;;;;;;;3.50;3.13;;;25.80;46.00;;;;;;5092948;28;20016;-30
2022/05/10 12:06:23;;;;;;;9.02;2.95;;;25.80;46.20;;;;;;5089281;28;20036;-29
2022/05/10 12:08:54;;;;;;;3.47;2.95;;;25.80;46.10;;;;;;5092938;28;20051;-30
2022/05/10 12:11:28;;;;;;;5.60;3.30;;;26.00;46.10;;;;;;5092541;28;20059;-31
2022/05/10 12:22:20;;;;;;;3.83;2.90;;;26.20;45.70;;;;;;5092917;28;20031;-32
2022/05/10 12:24:50;;;;;;;3.60;3.13;;;26.30;45.60;;;;;;5092586;28;20034;-34
2022/05/10 12:27:16;;;;;;;6.95;2.90;;;26.30;45.40;;;;;;5092571;28;20428;-31
2022/05/10 12:29:41;;;;;;;3.63;3.05;;;26.30;45.40;;;;;;5092572;28;20023;-31
2022/05/10 12:32:28;;;;;;;6.20;3.08;;;26.40;45.70;;;;;;5092706;28;20028;-29
2022/05/10 12:35:00;;;;;;;4.70;3.15;;;26.40;45.60;;;;;;5092581;28;20020;-30
2022/05/10 12:37:29;;;;;;;5.05;3.15;;;26.40;45.30;;;;;;5092839;28;20063;-30
2022/05/10 12:40:10;;;;;;;6.43;3.33;;;26.40;45.20;;;;;;5092680;28;20134;-30
2022/05/10 12:43:14;;;;;;;4.55;3.08;;;26.40;45.30;;;;;;5092744;28;20485;-30
2022/05/10 12:46:09;;;;;;;5.55;3.05;;;26.30;45.30;;;;;;5092889;28;20032;-32
2022/05/10 12:49:10;;;;;;;4.75;2.88;;;26.10;45.60;;;;;;5092320;28;20479;-31
2022/05/10 12:51:49;;;;;;;6.43;3.33;;;26.00;45.80;;;;;;5092117;28;20111;-32
2022/05/10 12:54:22;;;;;;;6.35;3.00;;;26.00;45.80;;;;;;5092610;28;20392;-33
2022/05/10 12:57:24;;;;;;;3.35;2.88;;;26.10;45.90;;;;;;5090981;28;20028;-30
2022/05/10 13:00:07;;;;;;;6.45;3.50;;;26.10;45.80;;;;;;5092217;28;20062;-34
2022/05/10 13:02:34;;;;;;;4.75;2.90;;;26.20;46.00;;;;;;5092601;28;20474;-31
2022/05/10 13:05:04;;;;;;;4.13;2.60;;;26.20;46.00;;;;;;5092224;28;20024;-31
2022/05/10 13:08:00;;;;;;;5.22;2.95;;;26.20;46.00;;;;;;5092087;28;20032;-30
2022/05/10 13:10:29;;;;;;;2.75;2.53;;;26.10;45.90;;;;;;5092405;28;20088;-34
2022/05/10 13:13:08;;;;;;;4.93;3.05;;;26.20;46.20;;;;;;5092079;28;20039;-47
2022/05/10 13:15:40;;;;;;;6.00;2.85;;;26.20;46.00;;;;;;5092410;28;20069;-46
2022/05/10 13:18:11;;;;;;;4.72;3.00;;;26.20;45.70;;;;;;5092264;28;20067;-46
2022/05/10 13:20:45;;;;;;;5.50;3.15;;;26.20;45.80;;;;;;5091971;28;20076;-46
2022/05/10 13:23:11;;;;;;;5.10;2.83;;;26.20;45.70;;;;;;5092457;28;20020;-46
2022/05/10 13:25:40;;;;;;;4.72;2.75;;;26.10;45.90;;;;;;5092334;28;20024;-46
2022/05/10 13:28:19;;;;;;;4.82;2.80;;;26.00;46.20;;;;;;5092369;28;20051;-46
2022/05/10 13:30:52;;;;;;;3.80;2.80;;;25.90;46.20;;;;;;5092176;28;20527;-46